Latest Weather Observations for Warruwi

IDD60801

Issued at 11:31 pm CST Monday 26 January 2015 (issued every 30 minutes, with the page automatically refreshed every 10 minutes)

About weather observations | Map of weather stations | Latest weather observations for NT | Other Formats
Station Details ID: 014401 Name: WARRUWI AIRPORT Lat: -11.65 Lon: 133.38 Height: 19.2 m
Data from the previous 72 hours. | See also: Recent months at Warruwi
Date/Time
CST
Temp
°C
App
Temp
°C
Dew
Point
Rel
Hum
%
Delta-T
°C
Wind Press
QNH
hPa
Press
MSL
hPa
Rain
since 9 am
mm
Dir
 
Spd
km/h
Gust
km/h
Spd
kts
Gust
kts
26/11:30pm 27.8 31.4 24.4 82 2.4 WNW 13 24 7 13 1008.6 1008.4 0.0
26/11:00pm 27.7 31.0 25.1 86 1.8 WNW 17 22 9 12 1008.6 1008.4 0.0
26/10:30pm 27.7 30.5 24.9 85 2.0 W 19 24 10 13 1008.4 1008.2 0.0
26/10:00pm 27.9 30.7 24.9 84 2.1 WNW 19 24 10 13 1008.0 1007.8 0.0
26/09:30pm 27.9 31.8 24.9 84 2.1 WNW 13 19 7 10 1007.6 1007.4 0.0
26/09:00pm 27.7 31.4 24.5 83 2.2 W 13 19 7 10 1007.5 1007.3 0.0
26/08:30pm 27.8 31.2 25.2 86 1.8 W 17 22 9 12 1007.5 1007.3 0.0
26/08:00pm 28.0 31.7 25.2 85 2.0 WNW 15 19 8 10 1007.3 1007.1 0.0
26/07:30pm 28.0 33.4 25.4 86 1.8 NW 7 13 4 7 1007.1 1006.9 0.0
26/07:00pm 27.8 32.7 24.6 83 2.2 NNW 7 15 4 8 1006.5 1006.3 0.0
26/06:30pm 27.9 32.2 23.7 78 2.9 WNW 7 9 4 5 1006.9 1006.7 0.0
26/06:00pm 28.3 32.0 23.2 74 3.5 NW 9 17 5 9 1006.9 1006.7 0.0
26/05:30pm 29.5 33.4 24.8 76 3.3 NW 13 22 7 12 1006.2 1006.0 0.0
26/05:00pm 29.6 32.5 24.5 74 3.6 NW 17 30 9 16 1006.5 1006.3 0.0
26/04:30pm 29.1 32.6 24.9 78 2.9 WNW 15 24 8 13 1006.7 1006.5 0.0
26/04:00pm 28.7 31.6 25.1 81 2.5 NW 19 32 10 17 1006.5 1006.3 0.0
26/03:30pm 28.5 32.4 24.3 78 2.9 NW 11 20 6 11 1006.7 1006.5 0.0
26/03:00pm 28.0 32.3 24.2 80 2.6 NW 9 15 5 8 1006.7 1006.5 0.0
26/02:30pm 27.1 31.5 24.4 85 1.9 NNW 9 17 5 9 1006.4 1006.2 0.0
26/02:00pm 26.8 30.7 24.3 86 1.7 NW 11 19 6 10 1006.9 1006.7 0.0
26/01:30pm 26.2 30.6 24.4 90 1.2 NW 9 15 5 8 1007.3 1007.1 0.0
26/01:00pm 26.7 31.1 25.1 91 1.1 NW 11 20 6 11 1008.0 1007.8 0.0
26/12:30pm 27.5 32.0 24.6 84 2.0 NNW 9 19 5 10 1008.2 1008.0 0.0
26/12:00pm 28.8 34.2 25.4 82 2.4 NW 7 13 4 7 1009.0 1008.8 0.0
26/11:30am 29.4 34.8 26.0 82 2.4 NNW 9 17 5 9 1009.2 1009.0 0.0
26/11:00am 30.0 34.4 25.7 78 3.0 WNW 13 19 7 10 1009.7 1009.5 0.0
26/10:30am 29.6 34.9 25.8 80 2.7 WNW 9 17 5 9 1009.8 1009.6 0.0
26/10:00am 29.3 33.7 26.3 84 2.1 WNW 15 20 8 11 1009.9 1009.7 0.0
26/09:30am 28.7 33.3 25.9 85 2.0 WNW 13 19 7 10 1009.9 1009.7 0.0
26/09:00am 28.9 33.3 25.7 83 2.3 WNW 13 19 7 10 1009.8 1009.6 0.0
26/08:30am 28.6 33.5 25.8 85 2.0 WNW 11 17 6 9 1009.8 1009.6 0.0
26/08:00am 27.9 32.7 25.7 88 1.6 WNW 11 19 6 10 1009.8 1009.6 0.0
26/07:30am 27.9 33.5 25.7 88 1.6 WNW 7 11 4 6 1009.7 1009.5 0.0
26/07:00am 27.6 33.2 25.8 90 1.3 WNW 7 9 4 5 1009.3 1009.1 0.0
26/06:30am 26.8 32.4 25.4 92 1.0 WNW 6 9 3 5 1009.1 1008.9 0.0
26/06:00am 26.5 32.3 25.1 92 1.0 WNW 4 6 2 3 1008.6 1008.4 0.0
26/05:30am 26.5 32.1 24.9 91 1.1 WNW 4 7 2 4 1008.5 1008.3 0.0
26/05:00am 26.6 31.9 25.0 91 1.1 WNW 6 9 3 5 1008.5 1008.3 0.0
26/04:30am 26.1 31.7 24.9 93 0.8 WNW 4 6 2 3 1008.2 1008.0 0.0
26/04:00am 26.1 32.2 24.5 91 1.1 CALM 0 0 0 0 1008.1 1007.9 0.0
26/03:30am 26.5 31.9 24.5 89 1.4 W 4 6 2 3 1007.8 1007.6 0.0
26/03:00am 26.8 31.5 24.3 86 1.7 W 7 11 4 6 1007.6 1007.4 0.0
26/02:30am 27.0 30.4 24.1 84 2.0 W 13 17 7 9 1007.8 1007.6 0.0
26/02:00am 27.6 31.8 25.4 88 1.5 W 13 19 7 10 1008.2 1008.0 0.0
26/01:30am 27.7 32.0 25.5 88 1.6 W 13 19 7 10 1008.7 1008.5 0.0
26/01:00am 27.8 32.3 25.2 86 1.8 WNW 11 15 6 8 1009.4 1009.2 0.0
26/12:30am 27.8 31.8 25.0 85 2.0 WNW 13 17 7 9 1009.8 1009.6 0.0
26/12:00am 27.8 32.2 25.0 85 2.0 WNW 11 19 6 10 1010.1 1009.9 0.0
 
Date/Time
CST
Temp
°C
App
Temp
°C
Dew
Point
Rel
Hum
%
Delta-T
°C
Wind Press
QNH
hPa
Press
MSL
hPa
Rain
since 9 am
mm
Dir
 
Spd
km/h
Gust
km/h
Spd
kts
Gust
kts
25/11:30pm 27.9 32.1 24.7 83 2.2 WNW 11 17 6 9 1010.3 1010.1 0.0
25/11:00pm 27.9 31.7 24.7 83 2.2 WNW 13 19 7 10 1010.3 1010.1 0.0
25/10:30pm 28.1 31.5 24.7 82 2.4 W 15 20 8 11 1010.2 1010.0 0.0
25/10:00pm 28.1 33.2 24.9 83 2.2 WNW 7 11 4 6 1010.0 1009.8 0.0
25/09:30pm 27.9 33.0 24.9 84 2.1 WNW 7 13 4 7 1009.6 1009.4 0.0
25/09:00pm 28.0 32.1 24.6 82 2.4 WNW 11 15 6 8 1009.0 1008.8 0.0
25/08:30pm 28.4 31.8 24.6 80 2.7 WNW 15 20 8 11 1008.8 1008.6 0.0
25/08:00pm 28.1 32.3 24.7 82 2.4 WNW 11 19 6 10 1008.2 1008.0 0.0
25/07:30pm 28.2 32.6 25.0 83 2.2 NW 11 19 6 10 1007.8 1007.6 0.0
25/07:00pm 28.2 30.9 24.2 79 2.8 WNW 17 28 9 15 1007.6 1007.4 0.0
25/06:30pm 28.4 31.9 24.8 81 2.5 WNW 15 26 8 14 1007.1 1006.9 0.0
25/06:00pm 28.4 32.4 25.0 82 2.4 WNW 13 22 7 12 1006.9 1006.7 0.0
25/05:30pm 28.5 32.3 25.3 83 2.3 WNW 15 22 8 12 1006.8 1006.6 0.0
25/05:00pm 28.5 31.9 24.7 80 2.7 NW 15 26 8 14 1007.0 1006.8 0.0
25/04:30pm 28.3 31.3 23.4 75 3.4 WNW 13 22 7 12 1007.0 1006.8 0.0
25/04:00pm 27.8 30.1 22.7 74 3.5 NW 15 33 8 18 1007.2 1007.0 0.0
25/03:30pm 27.9 31.2 24.5 82 2.4 NW 15 22 8 12 1007.8 1007.6 0.0
25/03:00pm 28.2 30.0 23.6 76 3.2 WNW 20 32 11 17 1008.1 1007.9 0.0
25/02:30pm 29.4 32.6 24.9 77 3.2 NNW 17 33 9 18 1008.0 1007.8 0.0
25/02:00pm 30.0 33.7 25.7 78 3.0 NNW 17 30 9 16 1008.2 1008.0 0.0
25/01:30pm 30.1 33.8 25.2 75 3.5 NNW 15 26 8 14 1008.3 1008.1 0.0
25/01:00pm 30.1 34.0 25.4 76 3.3 NNW 15 30 8 16 1008.7 1008.5 0.0
25/12:30pm 29.9 33.1 25.0 75 3.4 NW 17 28 9 15 1009.1 1008.9 0.0
25/12:00pm 29.4 33.3 24.9 77 3.2 NW 13 26 7 14 1009.8 1009.6 0.0
25/11:30am 29.5 32.9 24.6 75 3.4 NW 15 32 8 17 1010.3 1010.1 0.0
25/11:00am 30.1 33.4 24.5 72 3.9 NW 15 28 8 15 1010.8 1010.6 0.0
25/10:30am 29.4 32.8 24.7 76 3.3 NW 15 28 8 15 1011.2 1011.0 0.0
25/10:00am 29.7 34.5 25.7 79 2.8 WNW 11 20 6 11 1011.0 1010.8 0.0
25/09:30am 28.8 32.9 24.6 78 2.9 NW 11 20 6 11 1010.8 1010.6 0.0
25/09:00am 28.7 33.0 25.5 83 2.3 NW 13 22 7 12 1011.0 1010.8 0.2
25/08:30am 28.4 33.4 26.0 87 1.7 NW 11 22 6 12 1010.5 1010.3 0.2
25/08:00am 28.0 32.6 25.4 86 1.8 NW 11 19 6 10 1010.2 1010.0 0.2
25/07:30am 27.8 32.4 24.8 84 2.1 NW 9 17 5 9 1009.9 1009.7 0.2
25/07:00am 27.5 32.2 24.9 86 1.8 WNW 9 13 5 7 1009.2 1009.0 0.2
25/06:30am 27.3 31.4 24.6 85 1.9 WNW 11 17 6 9 1008.9 1008.7 0.2
25/06:00am 27.2 31.1 24.3 84 2.0 NW 11 19 6 10 1009.0 1008.8 0.2
25/05:30am 27.2 30.9 23.9 82 2.3 WNW 11 20 6 11 1009.0 1008.8 0.2
25/05:00am 27.2 30.4 23.7 81 2.4 NW 13 24 7 13 1008.8 1008.6 0.2
25/04:30am 27.1 30.7 23.8 82 2.3 WNW 11 20 6 11 1008.8 1008.6 0.2
25/04:00am 27.2 30.5 23.9 82 2.3 WNW 13 20 7 11 1008.6 1008.4 0.2
25/03:30am 26.8 30.7 24.3 86 1.7 WNW 11 19 6 10 1008.5 1008.3 0.2
25/03:00am 26.0 30.5 23.7 87 1.6 WNW 6 7 3 4 1008.1 1007.9 0.2
25/02:30am 25.6 30.2 23.1 86 1.7 NW 4 7 2 4 1008.6 1008.4 0.2
25/02:00am 25.1 29.4 23.3 90 1.2 NW 6 7 3 4 1008.9 1008.7 0.2
25/01:30am 24.9 30.3 23.3 91 1.1 CALM 0 0 0 0 1009.1 1008.9 0.2
25/01:00am 24.9 30.2 23.1 90 1.2 CALM 0 0 0 0 1009.5 1009.3 0.2
25/12:30am 24.9 29.7 22.8 88 1.4 SE 2 4 1 2 1009.9 1009.7 0.2
25/12:00am 25.2 29.0 22.7 86 1.7 ESE 7 9 4 5 1010.1 1009.9 0.2
 
Date/Time
CST
Temp
°C
App
Temp
°C
Dew
Point
Rel
Hum
%
Delta-T
°C
Wind Press
QNH
hPa
Press
MSL
hPa
Rain
since 9 am
mm
Dir
 
Spd
km/h
Gust
km/h
Spd
kts
Gust
kts
24/11:30pm 25.4 28.9 23.6 90 1.2 SSE 11 20 6 11 1011.5 1011.3 0.2
24/11:00pm 25.3 29.3 23.7 91 1.1 ESE 9 17 5 9 1011.5 1011.3 0.2
24/10:30pm 24.8 26.4 22.9 89 1.3 ESE 19 26 10 14 1011.1 1010.9 0.2
24/10:00pm 27.8 32.0 24.8 84 2.1 WNW 11 17 6 9 1010.3 1010.1 0.2
24/09:30pm 27.9 32.6 24.9 84 2.1 WNW 9 17 5 9 1010.1 1009.9 0.2
24/09:00pm 27.7 31.9 24.7 84 2.1 NW 11 20 6 11 1009.6 1009.4 0.2
24/08:30pm 27.7 31.1 24.7 84 2.1 NW 15 28 8 15 1009.0 1008.8 0.2
24/08:00pm 27.9 31.1 24.9 84 2.1 NW 17 30 9 16 1009.1 1008.9 0.2
24/07:30pm 27.8 31.7 24.8 84 2.1 NW 13 24 7 13 1008.6 1008.4 0.2
24/07:00pm 27.8 31.5 24.6 83 2.2 NW 13 28 7 15 1008.0 1007.8 0.2
24/06:30pm 28.0 31.0 24.6 82 2.4 NW 17 26 9 14 1007.4 1007.2 0.2
24/06:00pm 28.3 32.2 24.9 82 2.4 NW 13 24 7 13 1007.0 1006.8 0.2
24/05:30pm 28.1 32.1 25.1 84 2.1 NW 13 20 7 11 1006.6 1006.4 0.2
24/05:00pm 28.1 31.4 25.1 84 2.1 NW 17 30 9 16 1006.0 1005.8 0.2
24/04:30pm 28.6 32.2 25.0 81 2.5 NW 15 30 8 16 1005.6 1005.4 0.2
24/04:00pm 28.5 31.9 25.3 83 2.3 NW 17 28 9 15 1006.2 1006.0 0.2
24/03:30pm 29.1 32.1 25.3 80 2.7 NW 19 32 10 17 1006.7 1006.5 0.2
24/03:00pm 28.8 32.0 25.0 80 2.7 NW 17 32 9 17 1007.1 1006.9 0.2
24/02:30pm 28.5 31.5 24.7 80 2.7 NNW 17 32 9 17 1007.3 1007.1 0.2
24/02:00pm 30.3 34.5 24.7 72 3.9 NW 11 19 6 10 1007.1 1006.9 0.2
24/01:30pm 30.4 33.5 24.1 69 4.4 WNW 15 20 8 11 1007.2 1007.0 0.2
24/01:00pm 30.3 34.7 25.1 73 3.7 WNW 11 17 6 9 1007.1 1006.9 0.2
24/12:30pm 29.5 32.9 24.6 75 3.4 WNW 15 19 8 10 1006.8 1006.6 0.2
24/12:00pm 28.8 31.3 24.4 77 3.1 WNW 19 24 10 13 1007.1 1006.9 0.2
24/11:30am 29.2 32.8 24.3 75 3.4 WNW 13 22 7 12 1007.7 1007.5 0.2
24/11:00am 29.3 32.0 24.2 74 3.5 WNW 17 22 9 12 1008.7 1008.5 0.2
24/10:30am 29.0 31.7 24.8 78 2.9 W 19 26 10 14 1009.1 1008.9 0.2
24/10:00am 28.3 30.8 24.5 80 2.6 W 19 24 10 13 1009.1 1008.9 0.2
24/09:30am 27.7 29.5 24.3 82 2.4 W 22 30 12 16 1008.9 1008.7 0.0
24/09:00am 27.0 29.1 24.1 84 2.0 WNW 20 32 11 17 1008.7 1008.5 30.2
24/08:30am 27.3 30.3 24.0 82 2.3 WNW 15 26 8 14 1008.5 1008.3 30.2
24/08:00am 27.4 29.7 24.1 82 2.3 WNW 19 28 10 15 1008.1 1007.9 30.2
24/07:30am 27.5 30.1 23.9 81 2.5 WNW 17 24 9 13 1007.7 1007.5 30.2
24/07:00am 27.1 30.2 24.2 84 2.0 WNW 15 24 8 13 1007.3 1007.1 30.2
24/06:30am 26.8 29.7 23.9 84 2.0 WNW 15 26 8 14 1007.0 1006.8 30.2
24/06:00am 27.2 29.9 24.1 83 2.1 WNW 17 28 9 15 1006.5 1006.3 30.2
24/05:30am 27.1 31.0 24.2 84 2.0 WNW 11 17 6 9 1006.2 1006.0 30.2
24/05:00am 27.2 30.9 24.5 85 1.9 WNW 13 26 7 14 1006.0 1005.8 30.2
24/04:30am 27.2 31.6 25.0 88 1.5 WNW 11 20 6 11 1005.7 1005.5 30.2
24/04:00am 27.2 31.4 24.8 87 1.7 WNW 11 19 6 10 1005.9 1005.7 30.2
24/03:30am 27.2 31.6 24.5 85 1.9 NW 9 24 5 13 1006.2 1006.0 30.2
24/03:00am 27.0 31.2 24.1 84 2.0 NW 9 17 5 9 1006.1 1005.9 30.2
24/02:30am 27.1 31.7 24.2 84 2.0 NW 7 17 4 9 1006.3 1006.1 30.2
24/02:00am 27.1 31.6 24.6 86 1.7 NW 9 15 5 8 1006.8 1006.6 30.2
24/01:30am 27.4 32.0 24.7 85 1.9 NW 9 19 5 10 1007.2 1007.0 30.2
24/01:00am 27.0 31.7 24.3 85 1.9 NW 7 13 4 7 1007.4 1007.2 30.2
24/12:30am 27.1 31.2 24.6 86 1.7 WNW 11 15 6 8 1007.4 1007.2 30.2
24/12:00am 26.7 31.6 24.7 89 1.4 WNW 7 11 4 6 1007.5 1007.3 30.2

Other Formats:

Comma delimited format used in spreadsheet applications
http://www.bom.gov.au/fwo/IDD60801/IDD60801.94139.axf

JavaScript Object Notation format (JSON) in row-major order
http://www.bom.gov.au/fwo/IDD60801/IDD60801.94139.json